Austin, Texas
Current Conditions -  °F | °C
As of 10:51 PM on Saturday 25 Oct 2014 (Local Time) from KATT Reporting Station
Clear Clear  
Wind Chill: 22°   Ceiling: Unl
Heat Index: 22°   Visibility: 10mi
Dew Point: 15°   Wind: 0mph
Humidity: 66%   Direction: NA
Pressure: 30.1"   Gusts: NA
Location:  30.27°N, 97.74°W
Report Text: KATT 260351Z AUTO 00000KT 10SM CLR 22/15 A3010 RMK AO2 SLP184 T02170150
Loading
Personal Weather Stations






























Interactive Weather Map
Tropical Storm Tracking
New forecast layout! Learn more

10-Day Weather Forecast

Advertisements
Track Severe Weather on mobile